createdAt,value
2023-04-17T00:01:14.411Z,99005.88
2023-04-17T00:03:48.187Z,99006.56
2023-04-17T00:06:21.288Z,99005.84
2023-04-17T00:08:54.788Z,99006.69
2023-04-17T00:11:27.698Z,99002.03
2023-04-17T00:14:02.517Z,99000.59
2023-04-17T00:16:35.924Z,98998.50
2023-04-17T00:19:09.653Z,99000.72
2023-04-17T00:21:42.858Z,98994.00
2023-04-17T00:24:15.931Z,98992.34
2023-04-17T00:26:48.860Z,98991.66
2023-04-17T00:29:23.055Z,99006.19
2023-04-17T00:31:56.133Z,99005.34
2023-04-17T00:34:29.673Z,98992.97
2023-04-17T00:37:02.920Z,98995.19
2023-04-17T00:39:36.053Z,98983.41
2023-04-17T00:42:09.359Z,98982.09
2023-04-17T00:44:43.792Z,98985.41
2023-04-17T00:47:16.837Z,98990.13
2023-04-17T00:49:50.141Z,98986.31
2023-04-17T00:52:28.848Z,98982.72
2023-04-17T00:55:02.207Z,98978.91
2023-04-17T00:57:35.621Z,98983.28
2023-04-17T01:00:11.328Z,98980.63
2023-04-17T01:02:45.079Z,98973.25
2023-04-17T01:05:18.871Z,98975.41
2023-04-17T01:07:52.068Z,98981.09
2023-04-17T01:10:25.293Z,98981.31
2023-04-17T01:13:03.355Z,98975.28
2023-04-17T01:15:38.371Z,98972.84
2023-04-17T01:18:12.313Z,98977.03
2023-04-17T01:20:45.353Z,98988.88
2023-04-17T01:23:18.305Z,99015.13
2023-04-17T01:25:52.889Z,99034.25
2023-04-17T01:28:26.031Z,99049.66
2023-04-17T01:30:59.322Z,99032.34
2023-04-17T01:33:32.580Z,98996.53
2023-04-17T01:36:06.048Z,98982.16
2023-04-17T01:38:39.326Z,98964.56
2023-04-17T01:41:14.020Z,98970.50
2023-04-17T01:43:47.686Z,98984.03
2023-04-17T01:46:20.799Z,98990.41
2023-04-17T01:48:54.096Z,98970.47
2023-04-17T01:51:28.032Z,98930.81
2023-04-17T01:54:00.958Z,98918.84
2023-04-17T01:56:35.329Z,98947.78
2023-04-17T01:59:08.543Z,98949.44
2023-04-17T02:01:41.960Z,98944.31
2023-04-17T02:04:15.540Z,98930.16
2023-04-17T02:06:48.883Z,98930.25
2023-04-17T02:09:22.482Z,98945.47
2023-04-17T02:11:59.974Z,98942.22
2023-04-17T02:14:33.588Z,98946.63
2023-04-17T02:17:06.873Z,98941.06
2023-04-17T02:19:40.116Z,98962.53
2023-04-17T02:22:13.153Z,98965.28
2023-04-17T02:24:46.111Z,98962.13
2023-04-17T02:27:20.536Z,98960.31
2023-04-17T02:29:53.577Z,98966.13
2023-04-17T02:32:26.848Z,98943.94
2023-04-17T02:35:00.414Z,98933.47
2023-04-17T02:37:33.275Z,98932.38
2023-04-17T02:40:07.998Z,98935.09
2023-04-17T02:42:42.389Z,98937.09
2023-04-17T02:45:15.540Z,98928.19
2023-04-17T02:47:49.319Z,98918.91
2023-04-17T02:50:22.674Z,98926.59
2023-04-17T02:52:55.776Z,98944.34
2023-04-17T02:55:28.782Z,98942.91
2023-04-17T02:58:03.216Z,98942.75
2023-04-17T03:00:36.188Z,98944.72
2023-04-17T03:03:09.600Z,98949.03
2023-04-17T03:05:43.221Z,98943.22
2023-04-17T03:08:16.399Z,98946.13
2023-04-17T03:10:49.394Z,98940.66
2023-04-17T03:13:24.370Z,98935.78
2023-04-17T03:15:57.678Z,98943.44
2023-04-17T03:18:31.533Z,98953.41
2023-04-17T03:21:05.164Z,98954.88
2023-04-17T03:23:38.331Z,98942.63
2023-04-17T03:26:11.226Z,98950.34
2023-04-17T03:28:45.573Z,98957.78
2023-04-17T03:31:18.654Z,98963.66
2023-04-17T03:33:52.094Z,98955.19
2023-04-17T03:36:28.254Z,98949.94
2023-04-17T03:39:01.218Z,98956.47
2023-04-17T03:41:34.478Z,98960.72
2023-04-17T03:44:09.174Z,98949.88
2023-04-17T03:46:42.084Z,98947.31
2023-04-17T03:49:15.307Z,98953.03
2023-04-17T03:51:48.625Z,98963.81
2023-04-17T03:54:21.588Z,98975.34
2023-04-17T03:56:54.511Z,98977.78
2023-04-17T03:59:29.002Z,98971.56
2023-04-17T04:02:02.377Z,98974.94
2023-04-17T04:04:35.818Z,98972.09
2023-04-17T04:07:09.240Z,98977.72
2023-04-17T04:09:42.407Z,98970.06
2023-04-17T04:12:16.051Z,98956.47
2023-04-17T04:14:50.894Z,98955.09
2023-04-17T04:17:25.007Z,98960.09
2023-04-17T04:19:58.574Z,98959.50
2023-04-17T04:22:34.911Z,98956.91
2023-04-17T04:25:08.579Z,98962.88
2023-04-17T04:27:45.653Z,98963.69
2023-04-17T04:30:20.509Z,98984.25
2023-04-17T04:32:56.103Z,98982.59
2023-04-17T04:35:30.610Z,98976.78
2023-04-17T04:38:05.147Z,98967.63
2023-04-17T04:40:38.440Z,98972.19
2023-04-17T04:43:11.622Z,98988.00
2023-04-17T04:45:46.387Z,98977.41
2023-04-17T04:48:19.559Z,98988.69
2023-04-17T04:50:53.003Z,98992.06
2023-04-17T04:53:26.146Z,98981.56
2023-04-17T04:55:59.327Z,98982.34
2023-04-17T04:58:32.251Z,98990.38
2023-04-17T05:01:07.763Z,98987.53
2023-04-17T05:03:41.741Z,98981.50
2023-04-17T05:06:15.079Z,98973.75
2023-04-17T05:08:48.126Z,98977.09
2023-04-17T05:11:21.426Z,98983.50
2023-04-17T06:00:28.081Z,99024.22
2023-04-17T06:03:03.025Z,99025.31
2023-04-17T06:05:36.342Z,99038.00
2023-04-17T06:08:09.727Z,99040.66
2023-04-17T06:10:45.808Z,99029.16
2023-04-17T06:13:19.274Z,99019.09
2023-04-17T06:15:53.792Z,99020.44
2023-04-17T06:18:27.320Z,99045.91
2023-04-17T06:21:01.046Z,99046.38
2023-04-17T06:23:34.196Z,99063.34
2023-04-17T06:26:07.578Z,99050.00
2023-04-17T06:28:40.552Z,99058.22
2023-04-17T06:31:14.976Z,99076.38
2023-04-17T06:33:50.182Z,99084.25
2023-04-17T06:36:23.568Z,99085.53
2023-04-17T06:38:56.555Z,99075.06
2023-04-17T06:41:29.792Z,99068.47
2023-04-17T06:44:02.733Z,99059.75
2023-04-17T06:46:37.221Z,99072.13
2023-04-17T06:49:10.405Z,99079.50
2023-04-17T06:51:45.996Z,99082.16
2023-04-17T06:54:19.092Z,99081.22
2023-04-17T06:56:52.190Z,99086.34
2023-04-17T06:59:25.135Z,99075.97
2023-04-17T07:02:00.319Z,99084.13
2023-04-17T07:04:33.348Z,99085.75
2023-04-17T07:07:06.654Z,99082.31
2023-04-17T07:09:39.697Z,99078.97
2023-04-17T07:12:13.630Z,99079.13
2023-04-17T07:14:47.109Z,99077.66
2023-04-17T07:17:21.507Z,99078.91
2023-04-17T07:19:55.115Z,99068.69
2023-04-17T07:22:28.837Z,99082.88
2023-04-17T07:25:01.978Z,99080.72
2023-04-17T07:27:38.397Z,99078.72
2023-04-17T07:30:11.649Z,99069.19
2023-04-17T07:32:46.441Z,99080.44
2023-04-17T07:35:19.776Z,99088.97
2023-04-17T07:37:53.127Z,99079.66
2023-04-17T07:40:26.174Z,99079.94
2023-04-17T07:42:59.334Z,99088.44
2023-04-17T07:45:33.597Z,99077.78
2023-04-17T07:48:08.232Z,99086.13
2023-04-17T07:50:42.009Z,99087.94
2023-04-17T07:53:15.445Z,99087.28
2023-04-17T07:55:48.711Z,99085.56
2023-04-17T07:58:22.452Z,99086.69
2023-04-17T08:00:55.578Z,99093.13
2023-04-17T08:03:31.751Z,99096.13
2023-04-17T08:06:05.297Z,99093.34
2023-04-17T08:08:38.878Z,99090.56
2023-04-17T08:11:11.858Z,99093.31
2023-04-17T08:13:45.299Z,99085.66
2023-04-17T08:16:18.578Z,99087.72
2023-04-17T08:18:53.016Z,99091.88
2023-04-17T08:21:26.806Z,99093.38
2023-04-17T08:24:00.349Z,99087.28
2023-04-17T08:26:33.387Z,99091.44
2023-04-17T08:29:06.455Z,99077.53
2023-04-17T08:31:40.439Z,99071.03
2023-04-17T08:34:15.695Z,99068.38
2023-04-17T08:36:49.151Z,99068.72
2023-04-17T08:39:22.355Z,99064.66
2023-04-17T08:42:15.405Z,99057.81
2023-04-17T08:45:07.241Z,99056.84
2023-04-17T08:47:55.048Z,99065.53
2023-04-17T08:50:47.419Z,99072.09
2023-04-17T08:53:21.301Z,99071.25
2023-04-17T08:55:54.753Z,99073.84
2023-04-17T08:58:28.748Z,99071.81
2023-04-17T09:01:08.585Z,99072.00
2023-04-17T09:03:43.404Z,99077.53
2023-04-17T09:06:18.212Z,99072.16
2023-04-17T09:08:58.957Z,99086.06
2023-04-17T09:11:32.045Z,99091.94
2023-04-17T09:14:05.869Z,99087.56
2023-04-17T09:16:54.030Z,99079.81
2023-04-17T09:19:27.434Z,99081.84
2023-04-17T09:22:15.493Z,99090.22
2023-04-17T09:24:50.579Z,99087.91
2023-04-17T09:27:24.584Z,99083.88
2023-04-17T09:30:01.410Z,99083.66
2023-04-17T09:32:35.292Z,99086.97
2023-04-17T09:35:09.014Z,99085.44
2023-04-17T09:37:49.578Z,99080.69
2023-04-17T09:40:25.177Z,99077.59
2023-04-17T09:42:59.359Z,99083.44
2023-04-17T09:45:36.246Z,99080.81
2023-04-17T09:48:10.848Z,99085.41
2023-04-17T09:50:44.119Z,99075.19
2023-04-17T09:53:17.398Z,99076.16
2023-04-17T09:55:53.272Z,99073.81
2023-04-17T09:58:26.519Z,99076.47
2023-04-17T10:00:59.795Z,99074.28
2023-04-17T10:03:37.194Z,99073.59
2023-04-17T10:06:10.862Z,99080.00
2023-04-17T10:08:44.260Z,99092.13
2023-04-17T10:11:18.962Z,99094.06
2023-04-17T10:14:01.857Z,99104.25
2023-04-17T10:16:36.409Z,99106.56
2023-04-17T10:19:28.148Z,99074.31
2023-04-17T10:22:19.812Z,99107.69
2023-04-17T10:25:13.844Z,99106.00
2023-04-17T10:27:51.895Z,99103.66
2023-04-17T10:30:26.760Z,99073.50
2023-04-17T10:33:19.967Z,99065.28
2023-04-17T10:35:53.859Z,99070.47
2023-04-17T10:38:32.424Z,99071.25
2023-04-17T10:41:09.361Z,99073.16
2023-04-17T10:43:45.491Z,99075.66
2023-04-17T10:46:18.677Z,99070.28
2023-04-17T10:48:53.357Z,99077.81
2023-04-17T10:51:42.381Z,99085.44
2023-04-17T10:54:16.270Z,99091.31
2023-04-17T10:56:49.591Z,99091.97
2023-04-17T10:59:30.119Z,99100.88
2023-04-17T11:02:05.044Z,99112.50
2023-04-17T11:04:38.227Z,99103.69
2023-04-17T11:07:13.421Z,99103.50
2023-04-17T11:09:52.274Z,99098.94
2023-04-17T11:12:26.252Z,99091.13
2023-04-17T11:15:04.284Z,99078.28
2023-04-17T11:17:40.166Z,99070.41
2023-04-17T11:20:15.291Z,99073.00
2023-04-17T11:22:49.587Z,99063.91
2023-04-17T11:25:24.042Z,99068.81
2023-04-17T11:27:57.555Z,99069.47
2023-04-17T11:30:33.127Z,99064.53
2023-04-17T11:33:07.794Z,99072.31
2023-04-17T11:35:46.718Z,99069.78
2023-04-17T11:38:20.981Z,99070.88
2023-04-17T11:40:55.482Z,99067.63
2023-04-17T11:43:29.357Z,99066.03
2023-04-17T11:46:05.264Z,99069.94
2023-04-17T11:48:38.518Z,99070.94
2023-04-17T11:51:13.557Z,99070.44
2023-04-17T11:53:47.342Z,99070.72
2023-04-17T11:56:21.017Z,99066.03
2023-04-17T11:58:55.205Z,99067.31
2023-04-17T12:01:29.699Z,99070.88
2023-04-17T12:04:03.161Z,99062.25
2023-04-17T12:06:39.327Z,99062.03
2023-04-17T12:09:20.061Z,99060.19
2023-04-17T12:11:54.079Z,99059.22
2023-04-17T12:14:27.485Z,99057.91
2023-04-17T12:17:02.232Z,99042.91
2023-04-17T12:19:35.320Z,99051.25
2023-04-17T12:22:08.520Z,99051.31
2023-04-17T12:24:41.872Z,99042.94
2023-04-17T12:27:14.925Z,99043.97
2023-04-17T12:29:47.948Z,99030.09
2023-04-17T12:32:22.203Z,99042.72
2023-04-17T12:34:56.199Z,99043.50
2023-04-17T12:37:29.796Z,99038.59
2023-04-17T12:40:04.059Z,99039.00
2023-04-17T12:42:46.453Z,99035.03
2023-04-17T12:45:22.806Z,99035.59
2023-04-17T12:47:57.460Z,99029.50
2023-04-17T12:50:30.771Z,99032.38
2023-04-17T12:53:03.789Z,99027.38
2023-04-17T12:55:38.681Z,99031.03
2023-04-17T12:58:12.391Z,99031.19
2023-04-17T13:00:45.457Z,99031.88
2023-04-17T13:03:20.193Z,99029.66
2023-04-17T13:05:53.783Z,99044.47
2023-04-17T13:08:27.230Z,99043.97
2023-04-17T13:11:03.736Z,99039.78
2023-04-17T13:13:37.032Z,99044.81
2023-04-17T13:16:11.224Z,99038.69
2023-04-17T13:18:45.861Z,99048.88
2023-04-17T13:21:18.962Z,99043.97
2023-04-17T13:23:52.251Z,99046.38
2023-04-17T13:26:25.226Z,99047.91
2023-04-17T13:28:58.192Z,99044.97
2023-04-17T13:31:31.224Z,99047.97
2023-04-17T13:34:05.931Z,99037.91
2023-04-17T13:36:39.074Z,99036.66
2023-04-17T13:39:12.245Z,99035.66
2023-04-17T13:41:45.775Z,99033.72
2023-04-17T13:44:18.824Z,99036.19
2023-04-17T13:46:51.977Z,99033.69
2023-04-17T13:49:27.225Z,99030.28
2023-04-17T13:52:00.211Z,99024.50
2023-04-17T13:54:33.121Z,99014.81
2023-04-17T13:57:06.596Z,99008.22
2023-04-17T13:59:39.821Z,99003.69
2023-04-17T14:02:13.190Z,98996.69
2023-04-17T14:04:48.100Z,98999.75
2023-04-17T14:07:21.365Z,99002.59
2023-04-17T14:09:54.497Z,98997.56
2023-04-17T14:12:29.101Z,98990.16
2023-04-17T14:15:02.462Z,98997.72
2023-04-17T14:17:38.164Z,98987.97
2023-04-17T14:20:15.178Z,98986.53
2023-04-17T14:22:48.323Z,98989.00
2023-04-17T14:25:22.439Z,98977.06
2023-04-17T14:27:55.723Z,98986.69
2023-04-17T14:30:29.133Z,98986.03
2023-04-17T14:33:02.625Z,98986.03
2023-04-17T14:35:37.193Z,98989.25
2023-04-17T14:38:10.237Z,98983.34
2023-04-17T14:40:43.246Z,98988.28
2023-04-17T14:43:16.288Z,98985.72
2023-04-17T14:45:49.531Z,98987.28
2023-04-17T14:48:23.832Z,98987.47
2023-04-17T14:50:59.950Z,98990.38
2023-04-17T14:53:32.877Z,98991.09
2023-04-17T14:56:06.248Z,98983.16
2023-04-17T14:58:39.383Z,98992.25
2023-04-17T15:01:12.645Z,98983.63
2023-04-17T15:03:48.572Z,98998.75
2023-04-17T15:06:23.242Z,99003.75
2023-04-17T15:08:58.339Z,99007.09
2023-04-17T15:11:31.455Z,99004.84
2023-04-17T15:14:05.023Z,99006.88
2023-04-17T15:16:38.845Z,99008.91
2023-04-17T15:19:12.384Z,99007.09
2023-04-17T15:21:46.867Z,99002.81
2023-04-17T15:24:19.896Z,98996.84
2023-04-17T15:26:53.268Z,98992.06
2023-04-17T15:29:26.850Z,98984.78
2023-04-17T15:32:01.758Z,98985.91
2023-04-17T15:34:35.960Z,98980.16
2023-04-17T15:37:12.851Z,98966.78
2023-04-17T15:39:46.176Z,98967.69
2023-04-17T15:42:19.220Z,98967.47
2023-04-17T15:44:53.180Z,98964.97
2023-04-17T15:47:26.748Z,98970.97
2023-04-17T15:50:00.204Z,98974.75
2023-04-17T15:52:34.718Z,98983.03
2023-04-17T15:55:08.128Z,98992.84
2023-04-17T15:57:43.145Z,99003.34
2023-04-17T16:00:17.172Z,99004.47
2023-04-17T16:02:51.930Z,99008.16
2023-04-17T16:05:25.309Z,99003.16
2023-04-17T16:08:01.343Z,98999.19
2023-04-17T16:10:34.969Z,98989.28
2023-04-17T16:13:09.041Z,98981.06
2023-04-17T16:15:42.689Z,98985.94
2023-04-17T16:18:16.148Z,98987.28
2023-04-17T16:20:49.372Z,98995.00
2023-04-17T16:23:23.669Z,98995.28
2023-04-17T16:25:56.654Z,98995.06
2023-04-17T16:28:30.042Z,99002.00
2023-04-17T16:31:03.302Z,99012.44
2023-04-17T16:33:36.576Z,99026.22
2023-04-17T16:36:10.051Z,99031.09
2023-04-17T16:38:44.513Z,99032.44
2023-04-17T16:41:18.674Z,99038.66
2023-04-17T16:43:52.124Z,99041.25
2023-04-17T16:46:35.445Z,99045.34
2023-04-17T16:49:18.542Z,99055.38
2023-04-17T16:51:51.901Z,99055.91
2023-04-17T16:54:26.276Z,99055.72
2023-04-17T16:56:59.445Z,99050.34
2023-04-17T16:59:32.418Z,99048.19
2023-04-17T17:02:05.342Z,99047.69
2023-04-17T17:04:38.455Z,99048.69
2023-04-17T17:07:12.308Z,99054.91
2023-04-17T17:09:46.948Z,99055.06
2023-04-17T17:12:22.195Z,99058.34
2023-04-17T17:14:56.010Z,99051.56
2023-04-17T17:17:29.837Z,99056.56
2023-04-17T17:20:03.264Z,99060.44
2023-04-17T17:22:36.646Z,99064.44
2023-04-17T17:25:11.821Z,99067.78
2023-04-17T17:27:45.102Z,99068.97
2023-04-17T17:30:18.670Z,99081.25
2023-04-17T17:32:51.778Z,99078.00
2023-04-17T17:35:24.925Z,99082.31
2023-04-17T17:37:58.692Z,99082.44
2023-04-17T17:40:33.249Z,99087.53
2023-04-17T17:43:06.680Z,99079.34
2023-04-17T17:45:39.836Z,99094.44
2023-04-17T17:48:15.459Z,99082.50
2023-04-17T17:50:48.733Z,99089.22
2023-04-17T17:53:26.197Z,99096.13
2023-04-17T17:56:01.364Z,99087.56
2023-04-17T17:58:34.427Z,99095.81
2023-04-17T18:01:08.145Z,99096.59
2023-04-17T18:03:41.631Z,99096.47
2023-04-17T18:06:14.907Z,99100.56
2023-04-17T18:08:48.116Z,99102.97
2023-04-17T18:11:22.954Z,99106.00
2023-04-17T18:13:56.239Z,99106.84
2023-04-17T18:16:31.687Z,99106.22
2023-04-17T18:19:05.158Z,99108.16
2023-04-17T18:21:38.299Z,99111.13
2023-04-17T18:24:11.576Z,99110.50
2023-04-17T18:26:46.136Z,99112.47
2023-04-17T18:29:19.351Z,99111.78
2023-04-17T18:31:54.412Z,99114.16
2023-04-17T18:34:28.241Z,99122.22
2023-04-17T18:37:01.387Z,99127.63
2023-04-17T18:39:34.601Z,99132.53
2023-04-17T18:42:09.195Z,99131.19
2023-04-17T18:44:42.929Z,99130.31
2023-04-17T18:47:16.002Z,99129.81
2023-04-17T18:49:52.706Z,99134.63
2023-04-17T18:52:25.854Z,99137.81
2023-04-17T18:54:59.161Z,99134.88
2023-04-17T18:57:34.273Z,99141.72
2023-04-17T19:00:07.952Z,99142.88
2023-04-17T19:02:41.568Z,99139.94
2023-04-17T19:05:15.231Z,99136.53
2023-04-17T19:07:48.492Z,99137.94
2023-04-17T19:10:21.867Z,99134.00
2023-04-17T19:12:57.098Z,99144.25
2023-04-17T19:15:30.890Z,99137.06
2023-04-17T19:18:06.718Z,99135.94
2023-04-17T19:20:40.082Z,99141.50
2023-04-17T19:23:13.255Z,99139.97
2023-04-17T19:25:52.460Z,99144.97
2023-04-17T19:28:28.528Z,99140.22
2023-04-17T19:31:02.986Z,99146.63
2023-04-17T19:33:36.218Z,99148.16
2023-04-17T19:36:09.889Z,99145.25
2023-04-17T19:38:43.780Z,99152.91
2023-04-17T19:41:18.393Z,99137.06
2023-04-17T19:43:54.283Z,99142.44
2023-04-17T19:46:28.739Z,99133.16
2023-04-17T19:49:01.934Z,99136.84
2023-04-17T19:51:36.308Z,99127.56
2023-04-17T19:54:12.176Z,99134.63
2023-04-17T19:56:45.704Z,99137.84
2023-04-17T19:59:20.203Z,99134.03
2023-04-17T20:01:53.485Z,99141.59
2023-04-17T20:04:26.754Z,99140.84
2023-04-17T20:07:00.028Z,99146.63
2023-04-17T20:09:33.367Z,99142.66
2023-04-17T20:12:07.980Z,99136.69
2023-04-17T20:14:42.818Z,99140.38
2023-04-17T20:17:16.133Z,99140.38
2023-04-17T20:19:49.251Z,99140.19
2023-04-17T20:22:22.262Z,99144.25
2023-04-17T20:24:55.510Z,99138.56
2023-04-17T20:27:28.532Z,99148.16
2023-04-17T20:30:03.165Z,99149.69
2023-04-17T20:32:36.331Z,99141.66
2023-04-17T20:35:10.527Z,99145.59
2023-04-17T20:37:44.516Z,99138.53
2023-04-17T20:40:18.623Z,99141.13
2023-04-17T20:42:52.106Z,99138.16
2023-04-17T20:45:26.504Z,99137.97
2023-04-17T20:47:59.441Z,99139.66
2023-04-17T20:50:32.551Z,99138.66
2023-04-17T20:53:05.618Z,99138.66
2023-04-17T20:55:38.967Z,99136.44
2023-04-17T20:58:11.962Z,99127.22
2023-04-17T21:00:58.282Z,99136.16
2023-04-17T21:03:35.741Z,99129.09
2023-04-17T21:06:09.181Z,99129.75
2023-04-17T21:08:42.200Z,99123.94
2023-04-17T21:11:15.267Z,99131.03
2023-04-17T21:13:49.665Z,99127.75
2023-04-17T21:16:25.023Z,99135.41
2023-04-17T21:18:58.255Z,99132.19
2023-04-17T21:21:31.582Z,99133.44
2023-04-17T21:24:04.588Z,99136.81
2023-04-17T21:26:37.456Z,99144.94
2023-04-17T21:29:10.922Z,99135.44
2023-04-17T21:31:45.383Z,99138.25
2023-04-17T21:34:18.673Z,99140.44
2023-04-17T21:36:53.555Z,99139.19
2023-04-17T21:39:26.848Z,99149.38
2023-04-17T21:41:59.928Z,99146.66
2023-04-17T21:44:33.246Z,99151.59
2023-04-17T21:47:07.617Z,99144.09
2023-04-17T21:49:40.732Z,99150.00
2023-04-17T21:52:13.977Z,99151.94
2023-04-17T21:54:47.164Z,99152.41
2023-04-17T21:57:19.880Z,99151.09
2023-04-17T21:59:52.808Z,99159.75
2023-04-17T22:02:27.131Z,99161.59
2023-04-17T22:05:00.418Z,99164.59
2023-04-17T22:07:40.691Z,99161.06
2023-04-17T22:10:16.875Z,99169.41
2023-04-17T22:12:50.366Z,99163.25
2023-04-17T22:15:23.892Z,99164.03
2023-04-17T22:17:59.747Z,99162.72
2023-04-17T22:20:32.980Z,99174.75
2023-04-17T22:23:06.012Z,99170.09
2023-04-17T22:25:39.230Z,99169.94
2023-04-17T22:28:12.555Z,99164.78
2023-04-17T22:30:45.622Z,99167.06
2023-04-17T22:33:20.496Z,99168.63
2023-04-17T22:35:53.726Z,99162.09
2023-04-17T22:38:26.927Z,99168.38
2023-04-17T22:41:00.133Z,99167.22
2023-04-17T22:43:33.288Z,99166.50
2023-04-17T22:46:06.337Z,99163.72
2023-04-17T22:48:41.190Z,99166.63
2023-04-17T22:51:15.086Z,99166.78
2023-04-17T22:53:48.268Z,99171.03
2023-04-17T22:56:21.367Z,99159.25
2023-04-17T22:58:54.294Z,99166.41
2023-04-17T23:01:27.418Z,99163.47
2023-04-17T23:04:02.065Z,99167.84
2023-04-17T23:06:35.557Z,99156.84
2023-04-17T23:09:09.051Z,99163.06
2023-04-17T23:11:42.545Z,99159.09
2023-04-17T23:14:16.079Z,99165.00
2023-04-17T23:16:49.648Z,99154.38
2023-04-17T23:19:24.197Z,99161.88
2023-04-17T23:21:57.890Z,99162.47
2023-04-17T23:24:33.432Z,99166.38
2023-04-17T23:27:06.325Z,99162.09
2023-04-17T23:29:39.396Z,99169.78
2023-04-17T23:32:12.491Z,99167.13
2023-04-17T23:34:47.161Z,99157.28
2023-04-17T23:37:20.218Z,99167.75
2023-04-17T23:39:53.562Z,99169.31
2023-04-17T23:42:26.547Z,99171.16
2023-04-17T23:44:59.742Z,99170.41
2023-04-17T23:47:32.728Z,99170.88
2023-04-17T23:50:08.034Z,99177.13
2023-04-17T23:52:41.177Z,99173.13
2023-04-17T23:55:14.184Z,99168.69
2023-04-17T23:57:47.324Z,99163.28
